Terminal Aerodrome Forecast
Issued by NWS Cleveland, OH

Home | Current Version | Previous Version | Graphics & Text | Print | Product List | Glossary On
Versions: 1 2 3 4 5 6 7 8 9 10 11 12 13 14 15 16 17 18 19 20 21 22 23 24 25 26
000
FTUS41 KCLE 280536
TAFCLE
TAF
KCLE 280536Z 2806/2912 VRB04KT P6SM OVC012
      TEMPO 2806/2808 3SM -RA BR OVC008
     FM280800 32012KT 4SM -RA BR OVC008
     FM281600 32018G28KT P6SM VCSH OVC015
     FM282200 32012G18KT P6SM OVC025
     FM290300 30006KT P6SM SCT150
     FM290600 VRB03KT P6SM SCT250=

USA.gov is the U.S. government's official web portal to all federal, state and local government web resources and services.